sensor_id;sensor_type;location;lat;lon;timestamp;P1;durP1;ratioP1;P2;durP2;ratioP2
14876;SDS011;69691;48.172;17.070;2023-09-12T00:01:45;24.17;;;19.38;;
14876;SDS011;69691;48.172;17.070;2023-09-12T00:04:11;30.48;;;18.88;;
14876;SDS011;69691;48.172;17.070;2023-09-12T00:06:37;22.75;;;18.25;;
14876;SDS011;69691;48.172;17.070;2023-09-12T00:09:03;22.52;;;19.05;;
14876;SDS011;69691;48.172;17.070;2023-09-12T00:11:32;20.80;;;18.35;;
14876;SDS011;69691;48.172;17.070;2023-09-12T00:13:58;24.75;;;19.52;;
14876;SDS011;69691;48.172;17.070;2023-09-12T00:16:24;21.50;;;19.23;;
14876;SDS011;69691;48.172;17.070;2023-09-12T00:18:50;26.35;;;19.83;;
14876;SDS011;69691;48.172;17.070;2023-09-12T00:21:16;20.77;;;18.42;;
14876;SDS011;69691;48.172;17.070;2023-09-12T00:23:42;26.23;;;20.10;;
14876;SDS011;69691;48.172;17.070;2023-09-12T00:26:08;21.70;;;18.52;;
14876;SDS011;69691;48.172;17.070;2023-09-12T00:28:34;20.98;;;18.77;;
14876;SDS011;69691;48.172;17.070;2023-09-12T00:31:00;20.70;;;17.77;;
14876;SDS011;69691;48.172;17.070;2023-09-12T00:33:26;23.52;;;18.27;;
14876;SDS011;69691;48.172;17.070;2023-09-12T00:35:52;25.70;;;19.40;;
14876;SDS011;69691;48.172;17.070;2023-09-12T00:38:18;30.20;;;19.13;;
14876;SDS011;69691;48.172;17.070;2023-09-12T00:40:44;21.60;;;19.40;;
14876;SDS011;69691;48.172;17.070;2023-09-12T00:43:10;23.23;;;19.30;;
14876;SDS011;69691;48.172;17.070;2023-09-12T00:45:36;23.90;;;17.92;;
14876;SDS011;69691;48.172;17.070;2023-09-12T00:48:02;21.23;;;18.50;;
14876;SDS011;69691;48.172;17.070;2023-09-12T00:50:31;23.60;;;19.80;;
14876;SDS011;69691;48.172;17.070;2023-09-12T00:52:58;23.17;;;17.83;;
14876;SDS011;69691;48.172;17.070;2023-09-12T00:55:24;20.33;;;18.23;;
14876;SDS011;69691;48.172;17.070;2023-09-12T00:57:51;24.40;;;20.02;;
14876;SDS011;69691;48.172;17.070;2023-09-12T01:00:18;22.02;;;19.50;;
14876;SDS011;69691;48.172;17.070;2023-09-12T01:02:45;22.70;;;19.13;;
14876;SDS011;69691;48.172;17.070;2023-09-12T01:05:12;23.77;;;18.35;;
14876;SDS011;69691;48.172;17.070;2023-09-12T01:07:41;26.38;;;17.67;;
14876;SDS011;69691;48.172;17.070;2023-09-12T01:10:08;20.98;;;18.40;;
14876;SDS011;69691;48.172;17.070;2023-09-12T01:12:34;20.15;;;18.10;;
14876;SDS011;69691;48.172;17.070;2023-09-12T01:15:01;20.10;;;17.98;;
14876;SDS011;69691;48.172;17.070;2023-09-12T01:17:31;29.15;;;19.17;;
14876;SDS011;69691;48.172;17.070;2023-09-12T01:19:57;22.05;;;19.63;;
14876;SDS011;69691;48.172;17.070;2023-09-12T01:27:53;23.23;;;18.25;;
14876;SDS011;69691;48.172;17.070;2023-09-12T01:30:24;22.70;;;17.92;;
14876;SDS011;69691;48.172;17.070;2023-09-12T01:32:53;22.92;;;17.63;;
14876;SDS011;69691;48.172;17.070;2023-09-12T01:35:19;20.38;;;18.27;;
14876;SDS011;69691;48.172;17.070;2023-09-12T01:37:45;25.45;;;17.88;;
14876;SDS011;69691;48.172;17.070;2023-09-12T01:40:11;20.58;;;18.05;;
14876;SDS011;69691;48.172;17.070;2023-09-12T01:42:40;22.00;;;17.00;;
14876;SDS011;69691;48.172;17.070;2023-09-12T01:45:13;21.25;;;18.15;;
14876;SDS011;69691;48.172;17.070;2023-09-12T01:47:42;19.98;;;17.70;;
14876;SDS011;69691;48.172;17.070;2023-09-12T01:50:10;26.35;;;18.05;;
14876;SDS011;69691;48.172;17.070;2023-09-12T01:52:38;25.65;;;17.25;;
14876;SDS011;69691;48.172;17.070;2023-09-12T01:55:06;19.38;;;17.33;;
14876;SDS011;69691;48.172;17.070;2023-09-12T01:57:36;23.48;;;17.35;;
14876;SDS011;69691;48.172;17.070;2023-09-12T02:00:03;27.05;;;16.95;;
14876;SDS011;69691;48.172;17.070;2023-09-12T02:02:30;24.13;;;16.30;;
14876;SDS011;69691;48.172;17.070;2023-09-12T02:05:10;18.83;;;16.92;;
14876;SDS011;69691;48.172;17.070;2023-09-12T02:07:43;23.00;;;16.33;;
14876;SDS011;69691;48.172;17.070;2023-09-12T02:10:11;24.92;;;16.88;;
14876;SDS011;69691;48.172;17.070;2023-09-12T02:12:38;25.48;;;16.88;;
14876;SDS011;69691;48.172;17.070;2023-09-12T02:15:05;23.27;;;17.88;;
14876;SDS011;69691;48.172;17.070;2023-09-12T02:17:32;25.15;;;16.77;;
14876;SDS011;69691;48.172;17.070;2023-09-12T02:19:58;24.15;;;17.95;;
14876;SDS011;69691;48.172;17.070;2023-09-12T02:22:24;25.15;;;17.77;;
14876;SDS011;69691;48.172;17.070;2023-09-12T02:24:51;23.38;;;17.75;;
14876;SDS011;69691;48.172;17.070;2023-09-12T02:27:17;22.05;;;17.55;;
14876;SDS011;69691;48.172;17.070;2023-09-12T02:29:43;22.75;;;17.92;;
14876;SDS011;69691;48.172;17.070;2023-09-12T02:32:09;22.33;;;17.85;;
14876;SDS011;69691;48.172;17.070;2023-09-12T02:34:35;22.92;;;18.00;;
14876;SDS011;69691;48.172;17.070;2023-09-12T02:37:01;24.75;;;17.45;;
14876;SDS011;69691;48.172;17.070;2023-09-12T02:39:27;25.70;;;17.00;;
14876;SDS011;69691;48.172;17.070;2023-09-12T02:41:53;20.50;;;16.67;;
14876;SDS011;69691;48.172;17.070;2023-09-12T02:44:19;22.23;;;17.67;;
14876;SDS011;69691;48.172;17.070;2023-09-12T02:46:45;21.67;;;17.48;;
14876;SDS011;69691;48.172;17.070;2023-09-12T02:49:11;21.10;;;17.40;;
14876;SDS011;69691;48.172;17.070;2023-09-12T02:51:40;20.42;;;18.17;;
14876;SDS011;69691;48.172;17.070;2023-09-12T02:54:06;26.92;;;18.15;;
14876;SDS011;69691;48.172;17.070;2023-09-12T02:56:32;21.85;;;17.75;;
14876;SDS011;69691;48.172;17.070;2023-09-12T02:58:58;23.55;;;16.67;;
14876;SDS011;69691;48.172;17.070;2023-09-12T03:01:24;20.60;;;17.98;;
14876;SDS011;69691;48.172;17.070;2023-09-12T03:03:53;27.35;;;18.33;;
14876;SDS011;69691;48.172;17.070;2023-09-12T03:06:19;25.50;;;17.77;;
14876;SDS011;69691;48.172;17.070;2023-09-12T03:08:47;25.27;;;16.75;;
14876;SDS011;69691;48.172;17.070;2023-09-12T03:11:14;26.77;;;17.38;;
14876;SDS011;69691;48.172;17.070;2023-09-12T03:13:40;22.63;;;16.88;;
14876;SDS011;69691;48.172;17.070;2023-09-12T03:16:13;24.02;;;17.00;;
14876;SDS011;69691;48.172;17.070;2023-09-12T03:18:40;23.17;;;17.42;;
14876;SDS011;69691;48.172;17.070;2023-09-12T03:21:06;27.02;;;15.98;;
14876;SDS011;69691;48.172;17.070;2023-09-12T03:23:32;19.65;;;17.15;;
14876;SDS011;69691;48.172;17.070;2023-09-12T03:26:05;20.55;;;16.92;;
14876;SDS011;69691;48.172;17.070;2023-09-12T03:28:32;21.95;;;17.30;;
14876;SDS011;69691;48.172;17.070;2023-09-12T03:31:11;21.00;;;16.90;;
14876;SDS011;69691;48.172;17.070;2023-09-12T03:33:40;25.25;;;17.05;;
14876;SDS011;69691;48.172;17.070;2023-09-12T03:36:07;22.77;;;17.33;;
14876;SDS011;69691;48.172;17.070;2023-09-12T03:38:34;24.10;;;17.60;;
14876;SDS011;69691;48.172;17.070;2023-09-12T03:41:01;25.55;;;17.40;;
14876;SDS011;69691;48.172;17.070;2023-09-12T03:43:27;20.83;;;18.70;;
14876;SDS011;69691;48.172;17.070;2023-09-12T03:45:54;24.13;;;17.08;;
14876;SDS011;69691;48.172;17.070;2023-09-12T03:48:22;23.33;;;18.20;;
14876;SDS011;69691;48.172;17.070;2023-09-12T03:50:48;20.55;;;18.20;;
14876;SDS011;69691;48.172;17.070;2023-09-12T03:53:14;30.77;;;16.75;;
14876;SDS011;69691;48.172;17.070;2023-09-12T03:55:41;23.73;;;17.83;;
14876;SDS011;69691;48.172;17.070;2023-09-12T03:58:07;25.83;;;17.95;;
14876;SDS011;69691;48.172;17.070;2023-09-12T04:00:34;24.85;;;17.77;;
14876;SDS011;69691;48.172;17.070;2023-09-12T04:03:00;26.63;;;19.20;;
14876;SDS011;69691;48.172;17.070;2023-09-12T04:05:26;26.48;;;17.65;;
14876;SDS011;69691;48.172;17.070;2023-09-12T04:07:52;23.77;;;19.13;;
14876;SDS011;69691;48.172;17.070;2023-09-12T04:10:19;31.85;;;18.02;;
14876;SDS011;69691;48.172;17.070;2023-09-12T04:12:46;31.38;;;20.70;;
14876;SDS011;69691;48.172;17.070;2023-09-12T04:15:12;25.38;;;18.08;;
14876;SDS011;69691;48.172;17.070;2023-09-12T04:17:38;28.40;;;19.27;;
14876;SDS011;69691;48.172;17.070;2023-09-12T04:20:05;22.45;;;18.88;;
14876;SDS011;69691;48.172;17.070;2023-09-12T04:22:32;32.05;;;18.08;;
14876;SDS011;69691;48.172;17.070;2023-09-12T04:24:59;24.65;;;18.35;;
14876;SDS011;69691;48.172;17.070;2023-09-12T04:27:31;21.80;;;17.45;;
14876;SDS011;69691;48.172;17.070;2023-09-12T04:30:02;28.10;;;19.05;;
14876;SDS011;69691;48.172;17.070;2023-09-12T04:32:29;26.05;;;18.05;;
14876;SDS011;69691;48.172;17.070;2023-09-12T04:34:55;28.85;;;18.45;;
14876;SDS011;69691;48.172;17.070;2023-09-12T04:37:21;24.35;;;17.52;;
14876;SDS011;69691;48.172;17.070;2023-09-12T04:39:47;24.80;;;18.00;;
14876;SDS011;69691;48.172;17.070;2023-09-12T04:42:14;19.85;;;17.63;;
14876;SDS011;69691;48.172;17.070;2023-09-12T04:44:40;29.10;;;17.25;;
14876;SDS011;69691;48.172;17.070;2023-09-12T04:47:07;22.73;;;16.42;;
14876;SDS011;69691;48.172;17.070;2023-09-12T04:49:33;20.60;;;16.58;;
14876;SDS011;69691;48.172;17.070;2023-09-12T04:51:59;22.92;;;17.75;;
14876;SDS011;69691;48.172;17.070;2023-09-12T04:54:25;21.35;;;16.13;;
14876;SDS011;69691;48.172;17.070;2023-09-12T04:56:51;18.70;;;15.27;;
14876;SDS011;69691;48.172;17.070;2023-09-12T04:59:17;20.27;;;16.65;;
14876;SDS011;69691;48.172;17.070;2023-09-12T05:01:42;25.35;;;17.90;;
14876;SDS011;69691;48.172;17.070;2023-09-12T05:04:09;22.98;;;16.75;;
14876;SDS011;69691;48.172;17.070;2023-09-12T05:06:35;36.53;;;16.52;;
14876;SDS011;69691;48.172;17.070;2023-09-12T05:09:01;23.85;;;14.85;;
14876;SDS011;69691;48.172;17.070;2023-09-12T05:11:28;28.45;;;15.50;;
14876;SDS011;69691;48.172;17.070;2023-09-12T05:13:54;24.40;;;16.63;;
14876;SDS011;69691;48.172;17.070;2023-09-12T05:16:20;32.58;;;16.95;;
14876;SDS011;69691;48.172;17.070;2023-09-12T05:18:46;30.88;;;15.63;;
14876;SDS011;69691;48.172;17.070;2023-09-12T05:21:14;24.75;;;14.80;;
14876;SDS011;69691;48.172;17.070;2023-09-12T05:23:41;28.92;;;15.57;;
14876;SDS011;69691;48.172;17.070;2023-09-12T05:26:06;29.48;;;15.07;;
14876;SDS011;69691;48.172;17.070;2023-09-12T05:28:33;22.63;;;15.68;;
14876;SDS011;69691;48.172;17.070;2023-09-12T05:30:59;25.23;;;14.52;;
14876;SDS011;69691;48.172;17.070;2023-09-12T05:33:25;17.90;;;14.57;;
14876;SDS011;69691;48.172;17.070;2023-09-12T05:35:52;17.90;;;14.13;;
14876;SDS011;69691;48.172;17.070;2023-09-12T05:38:18;25.38;;;14.70;;
14876;SDS011;69691;48.172;17.070;2023-09-12T05:40:44;19.75;;;13.35;;
14876;SDS011;69691;48.172;17.070;2023-09-12T05:43:10;21.80;;;12.77;;
14876;SDS011;69691;48.172;17.070;2023-09-12T05:45:36;20.23;;;13.07;;
14876;SDS011;69691;48.172;17.070;2023-09-12T05:48:02;25.55;;;14.00;;
14876;SDS011;69691;48.172;17.070;2023-09-12T05:50:30;27.40;;;14.10;;
14876;SDS011;69691;48.172;17.070;2023-09-12T05:52:56;47.05;;;16.10;;
14876;SDS011;69691;48.172;17.070;2023-09-12T05:55:22;44.28;;;15.52;;
14876;SDS011;69691;48.172;17.070;2023-09-12T05:57:49;43.13;;;15.60;;
14876;SDS011;69691;48.172;17.070;2023-09-12T06:00:18;26.75;;;13.90;;
14876;SDS011;69691;48.172;17.070;2023-09-12T06:02:45;29.85;;;14.02;;
14876;SDS011;69691;48.172;17.070;2023-09-12T06:05:12;27.90;;;13.73;;
14876;SDS011;69691;48.172;17.070;2023-09-12T06:07:38;18.23;;;12.20;;
14876;SDS011;69691;48.172;17.070;2023-09-12T06:10:06;20.27;;;11.68;;
14876;SDS011;69691;48.172;17.070;2023-09-12T06:12:33;13.38;;;11.20;;
14876;SDS011;69691;48.172;17.070;2023-09-12T06:15:01;19.75;;;11.85;;
14876;SDS011;69691;48.172;17.070;2023-09-12T06:17:29;19.83;;;11.00;;
14876;SDS011;69691;48.172;17.070;2023-09-12T06:19:56;16.05;;;10.90;;
14876;SDS011;69691;48.172;17.070;2023-09-12T06:22:22;22.90;;;10.75;;
14876;SDS011;69691;48.172;17.070;2023-09-12T06:24:51;13.55;;;11.10;;
14876;SDS011;69691;48.172;17.070;2023-09-12T06:27:19;20.85;;;11.73;;
14876;SDS011;69691;48.172;17.070;2023-09-12T06:29:48;16.17;;;10.93;;
14876;SDS011;69691;48.172;17.070;2023-09-12T06:32:17;12.40;;;10.38;;
14876;SDS011;69691;48.172;17.070;2023-09-12T06:34:43;15.10;;;10.07;;
14876;SDS011;69691;48.172;17.070;2023-09-12T06:37:10;17.98;;;11.23;;
14876;SDS011;69691;48.172;17.070;2023-09-12T06:39:37;12.63;;;9.65;;
14876;SDS011;69691;48.172;17.070;2023-09-12T06:42:03;18.88;;;9.55;;
14876;SDS011;69691;48.172;17.070;2023-09-12T06:44:29;12.90;;;10.02;;
14876;SDS011;69691;48.172;17.070;2023-09-12T06:46:55;16.63;;;10.07;;
14876;SDS011;69691;48.172;17.070;2023-09-12T06:49:21;13.82;;;9.77;;
14876;SDS011;69691;48.172;17.070;2023-09-12T06:51:47;15.13;;;9.70;;
14876;SDS011;69691;48.172;17.070;2023-09-12T06:54:12;15.60;;;9.85;;
14876;SDS011;69691;48.172;17.070;2023-09-12T06:56:40;16.05;;;9.35;;
14876;SDS011;69691;48.172;17.070;2023-09-12T06:59:07;15.30;;;9.65;;
14876;SDS011;69691;48.172;17.070;2023-09-12T07:01:34;20.23;;;10.27;;
14876;SDS011;69691;48.172;17.070;2023-09-12T07:04:00;14.25;;;10.02;;
14876;SDS011;69691;48.172;17.070;2023-09-12T07:06:26;18.58;;;10.90;;
14876;SDS011;69691;48.172;17.070;2023-09-12T07:08:52;13.30;;;10.63;;
14876;SDS011;69691;48.172;17.070;2023-09-12T07:11:17;16.48;;;10.10;;
14876;SDS011;69691;48.172;17.070;2023-09-12T07:13:44;25.38;;;9.73;;
14876;SDS011;69691;48.172;17.070;2023-09-12T07:16:11;15.65;;;9.43;;
14876;SDS011;69691;48.172;17.070;2023-09-12T07:18:37;27.77;;;11.43;;
14876;SDS011;69691;48.172;17.070;2023-09-12T07:21:03;14.63;;;10.20;;
14876;SDS011;69691;48.172;17.070;2023-09-12T07:23:31;22.35;;;11.50;;
14876;SDS011;69691;48.172;17.070;2023-09-12T07:25:58;20.73;;;11.43;;
14876;SDS011;69691;48.172;17.070;2023-09-12T07:28:24;19.05;;;10.85;;
14876;SDS011;69691;48.172;17.070;2023-09-12T07:30:55;21.15;;;11.00;;
14876;SDS011;69691;48.172;17.070;2023-09-12T07:33:21;12.82;;;10.10;;
14876;SDS011;69691;48.172;17.070;2023-09-12T07:35:47;16.83;;;9.95;;
14876;SDS011;69691;48.172;17.070;2023-09-12T07:38:14;16.33;;;9.95;;
14876;SDS011;69691;48.172;17.070;2023-09-12T07:40:42;12.75;;;9.93;;
14876;SDS011;69691;48.172;17.070;2023-09-12T07:43:09;17.58;;;10.38;;
14876;SDS011;69691;48.172;17.070;2023-09-12T07:45:35;17.55;;;11.32;;
14876;SDS011;69691;48.172;17.070;2023-09-12T07:48:07;15.80;;;9.73;;
14876;SDS011;69691;48.172;17.070;2023-09-12T07:50:36;21.00;;;9.80;;
14876;SDS011;69691;48.172;17.070;2023-09-12T07:53:05;18.88;;;10.95;;
14876;SDS011;69691;48.172;17.070;2023-09-12T07:55:31;14.82;;;10.00;;
14876;SDS011;69691;48.172;17.070;2023-09-12T07:58:10;19.70;;;10.70;;
14876;SDS011;69691;48.172;17.070;2023-09-12T08:00:40;14.43;;;10.13;;
14876;SDS011;69691;48.172;17.070;2023-09-12T08:03:07;23.23;;;9.88;;
14876;SDS011;69691;48.172;17.070;2023-09-12T08:05:33;24.67;;;10.27;;
14876;SDS011;69691;48.172;17.070;2023-09-12T08:07:59;30.02;;;10.77;;
14876;SDS011;69691;48.172;17.070;2023-09-12T08:10:26;19.20;;;11.05;;
14876;SDS011;69691;48.172;17.070;2023-09-12T08:12:51;15.65;;;10.93;;
14876;SDS011;69691;48.172;17.070;2023-09-12T08:15:21;24.20;;;11.82;;
14876;SDS011;69691;48.172;17.070;2023-09-12T08:17:47;13.95;;;9.70;;
14876;SDS011;69691;48.172;17.070;2023-09-12T08:20:17;15.38;;;9.95;;
14876;SDS011;69691;48.172;17.070;2023-09-12T08:22:44;17.13;;;10.82;;
14876;SDS011;69691;48.172;17.070;2023-09-12T08:25:10;19.85;;;10.65;;
14876;SDS011;69691;48.172;17.070;2023-09-12T08:27:37;23.08;;;10.75;;
14876;SDS011;69691;48.172;17.070;2023-09-12T08:30:03;15.90;;;11.38;;
14876;SDS011;69691;48.172;17.070;2023-09-12T08:32:30;16.30;;;9.75;;
14876;SDS011;69691;48.172;17.070;2023-09-12T08:34:56;13.88;;;10.90;;
14876;SDS011;69691;48.172;17.070;2023-09-12T08:37:22;19.15;;;11.55;;
14876;SDS011;69691;48.172;17.070;2023-09-12T08:39:48;15.25;;;10.18;;
14876;SDS011;69691;48.172;17.070;2023-09-12T08:42:14;15.57;;;10.32;;
14876;SDS011;69691;48.172;17.070;2023-09-12T08:44:41;20.13;;;10.65;;
14876;SDS011;69691;48.172;17.070;2023-09-12T08:47:08;16.70;;;10.25;;
14876;SDS011;69691;48.172;17.070;2023-09-12T08:49:36;17.85;;;11.07;;
14876;SDS011;69691;48.172;17.070;2023-09-12T08:52:04;20.33;;;11.45;;
14876;SDS011;69691;48.172;17.070;2023-09-12T08:54:31;18.27;;;10.68;;
14876;SDS011;69691;48.172;17.070;2023-09-12T08:56:58;22.75;;;11.65;;
14876;SDS011;69691;48.172;17.070;2023-09-12T08:59:31;15.38;;;11.02;;
14876;SDS011;69691;48.172;17.070;2023-09-12T09:01:59;21.90;;;10.95;;
14876;SDS011;69691;48.172;17.070;2023-09-12T09:04:28;22.23;;;10.80;;
14876;SDS011;69691;48.172;17.070;2023-09-12T09:06:56;18.75;;;10.65;;
14876;SDS011;69691;48.172;17.070;2023-09-12T09:09:25;23.60;;;11.95;;
14876;SDS011;69691;48.172;17.070;2023-09-12T09:11:53;24.10;;;11.13;;
14876;SDS011;69691;48.172;17.070;2023-09-12T09:14:20;20.95;;;10.70;;
14876;SDS011;69691;48.172;17.070;2023-09-12T09:16:46;21.25;;;11.45;;
14876;SDS011;69691;48.172;17.070;2023-09-12T09:19:12;18.13;;;10.80;;
14876;SDS011;69691;48.172;17.070;2023-09-12T09:21:38;21.65;;;11.68;;
14876;SDS011;69691;48.172;17.070;2023-09-12T09:24:06;17.23;;;11.05;;
14876;SDS011;69691;48.172;17.070;2023-09-12T09:26:44;21.38;;;11.13;;
14876;SDS011;69691;48.172;17.070;2023-09-12T09:29:13;17.88;;;11.13;;
14876;SDS011;69691;48.172;17.070;2023-09-12T09:31:44;20.27;;;11.65;;
14876;SDS011;69691;48.172;17.070;2023-09-12T09:34:19;21.90;;;11.05;;
14876;SDS011;69691;48.172;17.070;2023-09-12T09:36:47;20.05;;;11.48;;
14876;SDS011;69691;48.172;17.070;2023-09-12T09:39:18;19.23;;;11.52;;
14876;SDS011;69691;48.172;17.070;2023-09-12T09:41:49;21.35;;;11.05;;
14876;SDS011;69691;48.172;17.070;2023-09-12T09:44:17;20.30;;;10.75;;
14876;SDS011;69691;48.172;17.070;2023-09-12T09:46:44;20.17;;;11.52;;
14876;SDS011;69691;48.172;17.070;2023-09-12T09:49:15;21.15;;;10.88;;
14876;SDS011;69691;48.172;17.070;2023-09-12T09:51:43;24.40;;;11.65;;
14876;SDS011;69691;48.172;17.070;2023-09-12T09:54:10;20.13;;;12.02;;
14876;SDS011;69691;48.172;17.070;2023-09-12T09:56:48;17.77;;;11.32;;
14876;SDS011;69691;48.172;17.070;2023-09-12T09:59:23;23.38;;;11.65;;
14876;SDS011;69691;48.172;17.070;2023-09-12T10:01:55;16.90;;;11.38;;
14876;SDS011;69691;48.172;17.070;2023-09-12T10:04:26;23.55;;;10.32;;
14876;SDS011;69691;48.172;17.070;2023-09-12T10:06:55;22.50;;;12.63;;
14876;SDS011;69691;48.172;17.070;2023-09-12T10:09:25;25.88;;;13.05;;
14876;SDS011;69691;48.172;17.070;2023-09-12T10:11:52;23.65;;;11.90;;
14876;SDS011;69691;48.172;17.070;2023-09-12T10:14:20;20.92;;;11.73;;
14876;SDS011;69691;48.172;17.070;2023-09-12T10:16:49;28.30;;;11.07;;
14876;SDS011;69691;48.172;17.070;2023-09-12T10:19:21;23.33;;;11.73;;
14876;SDS011;69691;48.172;17.070;2023-09-12T10:24:49;25.48;;;12.15;;
14876;SDS011;69691;48.172;17.070;2023-09-12T10:27:18;36.47;;;12.90;;
14876;SDS011;69691;48.172;17.070;2023-09-12T10:29:45;20.83;;;11.90;;
14876;SDS011;69691;48.172;17.070;2023-09-12T10:32:13;25.48;;;13.38;;
14876;SDS011;69691;48.172;17.070;2023-09-12T10:34:40;22.23;;;12.65;;
14876;SDS011;69691;48.172;17.070;2023-09-12T10:37:10;29.08;;;13.93;;
14876;SDS011;69691;48.172;17.070;2023-09-12T10:39:38;21.02;;;12.45;;
14876;SDS011;69691;48.172;17.070;2023-09-12T10:42:05;25.15;;;13.07;;
14876;SDS011;69691;48.172;17.070;2023-09-12T10:44:32;34.97;;;13.82;;
14876;SDS011;69691;48.172;17.070;2023-09-12T10:46:59;19.08;;;11.70;;
14876;SDS011;69691;48.172;17.070;2023-09-12T10:49:26;18.00;;;12.25;;
14876;SDS011;69691;48.172;17.070;2023-09-12T10:51:53;22.95;;;12.52;;
14876;SDS011;69691;48.172;17.070;2023-09-12T10:54:26;20.20;;;11.52;;
14876;SDS011;69691;48.172;17.070;2023-09-12T10:57:05;22.35;;;11.32;;
14876;SDS011;69691;48.172;17.070;2023-09-12T10:59:33;20.42;;;11.32;;
14876;SDS011;69691;48.172;17.070;2023-09-12T11:04:58;18.70;;;11.20;;
14876;SDS011;69691;48.172;17.070;2023-09-12T11:08:00;24.75;;;11.50;;
14876;SDS011;69691;48.172;17.070;2023-09-12T11:10:26;12.93;;;10.70;;
14876;SDS011;69691;48.172;17.070;2023-09-12T11:12:54;22.80;;;11.10;;
14876;SDS011;69691;48.172;17.070;2023-09-12T11:15:23;21.20;;;10.88;;
14876;SDS011;69691;48.172;17.070;2023-09-12T11:18:01;19.50;;;10.32;;
14876;SDS011;69691;48.172;17.070;2023-09-12T11:23:22;15.73;;;9.82;;
14876;SDS011;69691;48.172;17.070;2023-09-12T11:25:48;16.42;;;9.93;;
14876;SDS011;69691;48.172;17.070;2023-09-12T11:28:14;36.15;;;10.80;;
14876;SDS011;69691;48.172;17.070;2023-09-12T11:30:54;21.65;;;10.93;;
14876;SDS011;69691;48.172;17.070;2023-09-12T11:33:25;17.23;;;9.88;;
14876;SDS011;69691;48.172;17.070;2023-09-12T11:35:54;16.75;;;10.38;;
14876;SDS011;69691;48.172;17.070;2023-09-12T11:38:29;22.00;;;10.70;;
14876;SDS011;69691;48.172;17.070;2023-09-12T11:40:56;19.05;;;11.15;;
14876;SDS011;69691;48.172;17.070;2023-09-12T11:43:24;17.88;;;10.82;;
14876;SDS011;69691;48.172;17.070;2023-09-12T11:45:52;20.00;;;10.95;;
14876;SDS011;69691;48.172;17.070;2023-09-12T11:48:21;20.55;;;10.40;;
14876;SDS011;69691;48.172;17.070;2023-09-12T11:50:51;20.80;;;11.95;;
14876;SDS011;69691;48.172;17.070;2023-09-12T11:53:21;23.55;;;10.77;;
14876;SDS011;69691;48.172;17.070;2023-09-12T11:55:51;18.23;;;11.68;;
14876;SDS011;69691;48.172;17.070;2023-09-12T11:58:20;22.50;;;11.23;;
14876;SDS011;69691;48.172;17.070;2023-09-12T12:00:48;23.77;;;11.30;;
14876;SDS011;69691;48.172;17.070;2023-09-12T12:03:17;27.95;;;11.20;;
14876;SDS011;69691;48.172;17.070;2023-09-12T12:05:46;26.83;;;12.57;;
14876;SDS011;69691;48.172;17.070;2023-09-12T12:08:13;20.90;;;11.13;;
14876;SDS011;69691;48.172;17.070;2023-09-12T12:10:41;18.02;;;11.10;;
14876;SDS011;69691;48.172;17.070;2023-09-12T12:13:16;18.95;;;11.23;;
14876;SDS011;69691;48.172;17.070;2023-09-12T12:15:43;29.85;;;12.52;;
14876;SDS011;69691;48.172;17.070;2023-09-12T12:18:09;22.50;;;11.65;;
14876;SDS011;69691;48.172;17.070;2023-09-12T12:20:35;20.02;;;12.75;;
14876;SDS011;69691;48.172;17.070;2023-09-12T12:23:01;21.55;;;12.23;;
14876;SDS011;69691;48.172;17.070;2023-09-12T12:25:31;19.98;;;10.63;;
14876;SDS011;69691;48.172;17.070;2023-09-12T12:27:59;18.10;;;10.65;;
14876;SDS011;69691;48.172;17.070;2023-09-12T12:30:29;29.10;;;11.20;;
14876;SDS011;69691;48.172;17.070;2023-09-12T12:33:06;19.60;;;11.23;;
14876;SDS011;69691;48.172;17.070;2023-09-12T12:35:34;22.00;;;10.82;;
14876;SDS011;69691;48.172;17.070;2023-09-12T12:38:02;21.67;;;10.43;;
14876;SDS011;69691;48.172;17.070;2023-09-12T12:40:28;17.20;;;10.52;;
14876;SDS011;69691;48.172;17.070;2023-09-12T12:42:54;22.30;;;11.05;;
14876;SDS011;69691;48.172;17.070;2023-09-12T12:45:21;19.88;;;10.85;;
14876;SDS011;69691;48.172;17.070;2023-09-12T12:47:54;17.88;;;10.98;;
14876;SDS011;69691;48.172;17.070;2023-09-12T12:50:25;17.52;;;11.32;;
14876;SDS011;69691;48.172;17.070;2023-09-12T12:52:51;19.80;;;11.00;;
14876;SDS011;69691;48.172;17.070;2023-09-12T12:55:19;19.25;;;11.02;;
14876;SDS011;69691;48.172;17.070;2023-09-12T12:57:47;22.55;;;11.55;;
14876;SDS011;69691;48.172;17.070;2023-09-12T13:00:14;15.38;;;11.10;;
14876;SDS011;69691;48.172;17.070;2023-09-12T13:02:43;41.58;;;11.70;;
14876;SDS011;69691;48.172;17.070;2023-09-12T13:07:51;21.13;;;11.10;;
14876;SDS011;69691;48.172;17.070;2023-09-12T13:10:18;19.33;;;11.02;;
14876;SDS011;69691;48.172;17.070;2023-09-12T13:12:45;19.92;;;11.73;;
14876;SDS011;69691;48.172;17.070;2023-09-12T13:15:12;20.60;;;11.50;;
14876;SDS011;69691;48.172;17.070;2023-09-12T13:17:38;17.30;;;11.80;;
14876;SDS011;69691;48.172;17.070;2023-09-12T13:20:06;24.02;;;11.02;;
14876;SDS011;69691;48.172;17.070;2023-09-12T13:22:33;22.85;;;10.80;;
14876;SDS011;69691;48.172;17.070;2023-09-12T13:25:00;24.80;;;10.95;;
14876;SDS011;69691;48.172;17.070;2023-09-12T13:27:26;16.83;;;10.65;;
14876;SDS011;69691;48.172;17.070;2023-09-12T13:29:52;19.27;;;11.43;;
14876;SDS011;69691;48.172;17.070;2023-09-12T13:32:18;15.73;;;10.80;;
14876;SDS011;69691;48.172;17.070;2023-09-12T13:34:44;16.83;;;11.45;;
14876;SDS011;69691;48.172;17.070;2023-09-12T13:37:10;18.45;;;11.95;;
14876;SDS011;69691;48.172;17.070;2023-09-12T13:39:36;19.13;;;11.13;;
14876;SDS011;69691;48.172;17.070;2023-09-12T13:42:02;23.00;;;11.68;;
14876;SDS011;69691;48.172;17.070;2023-09-12T13:44:33;18.35;;;10.05;;
14876;SDS011;69691;48.172;17.070;2023-09-12T13:46:59;17.30;;;12.30;;
14876;SDS011;69691;48.172;17.070;2023-09-12T13:49:25;14.18;;;10.63;;
14876;SDS011;69691;48.172;17.070;2023-09-12T13:51:51;13.65;;;10.77;;
14876;SDS011;69691;48.172;17.070;2023-09-12T13:54:16;17.10;;;11.88;;
14876;SDS011;69691;48.172;17.070;2023-09-12T13:56:43;18.70;;;11.48;;
14876;SDS011;69691;48.172;17.070;2023-09-12T13:59:09;17.33;;;11.75;;
14876;SDS011;69691;48.172;17.070;2023-09-12T14:01:35;20.55;;;11.15;;
14876;SDS011;69691;48.172;17.070;2023-09-12T14:04:02;14.20;;;10.88;;
14876;SDS011;69691;48.172;17.070;2023-09-12T14:06:28;16.60;;;11.07;;
14876;SDS011;69691;48.172;17.070;2023-09-12T14:08:54;17.27;;;11.02;;
14876;SDS011;69691;48.172;17.070;2023-09-12T14:11:20;25.23;;;11.45;;
14876;SDS011;69691;48.172;17.070;2023-09-12T14:13:46;16.58;;;10.25;;
14876;SDS011;69691;48.172;17.070;2023-09-12T14:16:12;15.30;;;10.90;;
14876;SDS011;69691;48.172;17.070;2023-09-12T14:18:38;15.77;;;10.80;;
14876;SDS011;69691;48.172;17.070;2023-09-12T14:21:04;16.10;;;10.50;;
14876;SDS011;69691;48.172;17.070;2023-09-12T14:23:30;14.85;;;10.85;;
14876;SDS011;69691;48.172;17.070;2023-09-12T14:25:56;18.60;;;10.68;;
14876;SDS011;69691;48.172;17.070;2023-09-12T14:28:21;19.38;;;11.63;;